Rickreall, Oregon
Current Conditions -  °F | °C
As of 2:28 PM on Friday 24 Oct 2014 (Local Time) from KSLE Reporting Station
Light Rain Light Rain  
Wind Chill: 53°   Ceiling: 1000
Heat Index: 53°   Visibility: 5mi
Dew Point: 51°   Wind: 8mph
Humidity: 93%   Direction: 360°N
Pressure: 29.87"   Gusts: NA
Location:  44.93°N, 123.23°W
Report Text: KSLE 242128Z 36007KT 5SM -RA BR BKN010 OVC070 12/11 A2987 RMK AO2 P0003 T01170106
Loading
Personal Weather Stations






























Interactive Weather Map
Tropical Storm Tracking
New forecast layout! Learn more

10-Day Weather Forecast

Advertisements
Track Severe Weather on mobile